Time;durP1;ratioP1;P1;durP2;ratioP2;P2;SDS_P1;SDS_P2;PMS_P1;PMS_P2;Temp;Humidity;BMP_temperature;BMP_pressure;BME280_temperature;BME280_humidity;BME280_pressure;Samples;Min_cycle;Max_cycle;Signal;HPM_P1;HPM_P2
2022/08/26 00:00:18;;;;;;;;;;;;;;;;;;1052043;28;3089;-52
2022/08/26 00:01:06;;;;;;;;;;;;;;;;;;1045508;28;4748;-50
2022/08/26 00:01:36;;;;;;;;;;;;;;;;;;1046469;28;4094;-51
2022/08/26 00:02:07;;;;;;;;;;;;;;;;;;1048196;28;2895;-51
2022/08/26 00:02:37;;;;;;;;;;;;;;;;;;1046694;28;4022;-51
2022/08/26 00:03:07;;;;;;;;;;;;;;;;;;1053006;28;3763;-55
2022/08/26 00:03:38;;;;;;;;;;;;;;;;;;1053897;28;3892;-50
2022/08/26 00:04:09;;;;;;;;;;;;;;;;;;1052417;28;3415;-49
2022/08/26 00:04:39;;;;;;;;;;;;;;;;;;1051628;28;3894;-52
2022/08/26 00:05:09;;;;;;;;;;;;;;;;;;1053389;28;3623;-55
2022/08/26 00:05:40;;;;;;;;;;;;;;;;;;1050947;28;4079;-52
2022/08/26 00:06:11;;;;;;;;;;;;;;;;;;1053135;28;1401;-52
2022/08/26 00:06:42;;;;;;;;;;;;;;;;;;1051657;28;5003;-50
2022/08/26 00:07:12;;;;;;;;;;;;;;;;;;1047002;28;3186;-51
2022/08/26 00:07:43;;;;;;;;;;;;;;;;;;1047773;28;4047;-55
2022/08/26 00:08:13;;;;;;;;;;;;;;;;;;1049346;28;1331;-51
2022/08/26 00:08:45;;;;;;;;;;;;;;;;;;1047606;28;4045;-50
2022/08/26 00:09:15;;;;;;;;;;;;;;;;;;1052116;28;3276;-53
2022/08/26 00:09:46;;;;;;;;;;;;;;;;;;1051098;28;3927;-51
2022/08/26 00:10:16;;;;;;;;;;;;;;;;;;1052944;28;3753;-52
2022/08/26 00:10:47;;;;;;;;;;;;;;;;;;1053029;28;4414;-51
2022/08/26 00:11:17;;;;;;;;;;;;;;;;;;1051632;28;3761;-53
2022/08/26 00:11:48;;;;;;;;;;;;;;;;;;1052980;28;3898;-49
2022/08/26 00:12:18;;;;;;;;;;;;;;;;;;1048709;28;3605;-50
2022/08/26 00:12:48;;;;;;;;;;;;;;;;;;1047121;28;4064;-51
2022/08/26 00:13:19;;;;;;;;;;;;;;;;;;1047992;28;3727;-55
2022/08/26 00:13:49;;;;;;;;;;;;;;;;;;1047002;28;4005;-51
2022/08/26 00:14:20;;;;;;;;;;;;;;;;;;1047796;28;2937;-50
2022/08/26 00:14:50;;;;;;;;;;;;;;;;;;1053500;28;4093;-50
2022/08/26 00:15:21;;;;;;;;;;;;;;;;;;1053775;28;1657;-53
2022/08/26 00:15:52;;;;;;;;;;;;;;;;;;1050510;28;3837;-52
2022/08/26 00:16:26;;;;;;;;;;;;;;;;;;1052628;28;1643;-51
2022/08/26 00:16:56;;;;;;;;;;;;;;;;;;1051496;28;3835;-51
2022/08/26 00:17:27;;;;;;;;;;;;;;;;;;1051975;28;4022;-54
2022/08/26 00:17:57;;;;;;;;;;;;;;;;;;1053151;28;3100;-53
2022/08/26 00:18:28;;;;;;;;;;;;;;;;;;1053336;28;4263;-53
2022/08/26 00:18:58;;;;;;;;;;;;;;;;;;1052334;28;2909;-52
2022/08/26 00:19:29;;;;;;;;;;;;;;;;;;1051540;28;3934;-54
2022/08/26 00:19:59;;;;;;;;;;;;;;;;;;1053447;28;3670;-52
2022/08/26 00:20:30;;;;;;;;;;;;;;;;;;1048905;28;4092;-50
2022/08/26 00:21:01;;;;;;;;;;;;;;;;;;1043697;28;2789;-50
2022/08/26 00:21:31;;;;;;;;;;;;;;;;;;1044544;28;3864;-51
2022/08/26 00:22:01;;;;;;;;;;;;;;;;;;1044085;28;2094;-50
2022/08/26 00:22:32;;;;;;;;;;;;;;;;;;1047966;28;4091;-54
2022/08/26 00:23:02;;;;;;;;;;;;;;;;;;1053778;28;2879;-51
2022/08/26 00:23:33;;;;;;;;;;;;;;;;;;1052353;28;3865;-52
2022/08/26 00:24:03;;;;;;;;;;;;;;;;;;1051756;28;3563;-51
2022/08/26 00:24:33;;;;;;;;;;;;;;;;;;1053456;28;3982;-50
2022/08/26 00:25:04;;;;;;;;;;;;;;;;;;1053237;28;3069;-54
2022/08/26 00:25:35;;;;;;;;;;;;;;;;;;1053055;28;4192;-53
2022/08/26 00:26:05;;;;;;;;;;;;;;;;;;1051657;28;3840;-52
2022/08/26 00:26:36;;;;;;;;;;;;;;;;;;1050891;28;4088;-48
2022/08/26 00:27:06;;;;;;;;;;;;;;;;;;1051860;28;4105;-50
2022/08/26 00:27:36;;;;;;;;;;;;;;;;;;1052197;28;3889;-53
2022/08/26 00:28:06;;;;;;;;;;;;;;;;;;1052322;28;3268;-50
2022/08/26 00:28:37;;;;;;;;;;;;;;;;;;1051276;28;3910;-52
2022/08/26 00:29:07;;;;;;;;;;;;;;;;;;1053063;28;3110;-51
2022/08/26 00:29:37;;;;;;;;;;;;;;;;;;1052945;28;4051;-52
2022/08/26 00:30:09;;;;;;;;;;;;;;;;;;1051157;28;3179;-54
2022/08/26 00:30:40;;;;;;;;;;;;;;;;;;1053895;28;4067;-53
2022/08/26 00:31:10;;;;;;;;;;;;;;;;;;1050233;28;3207;-49
2022/08/26 00:31:40;;;;;;;;;;;;;;;;;;1052955;28;3945;-54
2022/08/26 00:32:11;;;;;;;;;;;;;;;;;;1053242;28;2435;-52
2022/08/26 00:32:55;;;;;;;;;;;;;;;;;;1052215;28;3903;-51
2022/08/26 00:33:32;;;;;;;;;;;;;;;;;;1052252;28;3820;-54
2022/08/26 00:34:03;;;;;;;;;;;;;;;;;;1052228;28;3266;-49
2022/08/26 00:34:33;;;;;;;;;;;;;;;;;;1051070;28;3854;-51
2022/08/26 00:35:04;;;;;;;;;;;;;;;;;;1053373;28;3634;-51
2022/08/26 00:35:34;;;;;;;;;;;;;;;;;;1051629;28;4402;-49
2022/08/26 00:36:05;;;;;;;;;;;;;;;;;;1050242;28;3838;-54
2022/08/26 00:36:36;;;;;;;;;;;;;;;;;;1050415;28;4149;-51
2022/08/26 00:37:06;;;;;;;;;;;;;;;;;;1053949;28;3101;-49
2022/08/26 00:37:36;;;;;;;;;;;;;;;;;;1052476;28;4070;-53
2022/08/26 00:38:07;;;;;;;;;;;;;;;;;;1053084;28;3042;-53
2022/08/26 00:38:37;;;;;;;;;;;;;;;;;;1052309;28;3887;-48
2022/08/26 00:39:08;;;;;;;;;;;;;;;;;;1053382;28;4295;-52
2022/08/26 00:39:38;;;;;;;;;;;;;;;;;;1052521;28;4060;-53
2022/08/26 00:40:12;;;;;;;;;;;;;;;;;;1054892;28;1668;-53
2022/08/26 00:40:44;;;;;;;;;;;;;;;;;;1052022;28;4172;-51
2022/08/26 00:41:17;;;;;;;;;;;;;;;;;;1054504;28;2021;-52
2022/08/26 00:41:47;;;;;;;;;;;;;;;;;;1053497;28;3895;-53
2022/08/26 00:42:17;;;;;;;;;;;;;;;;;;1053497;28;3663;-53
2022/08/26 00:42:48;;;;;;;;;;;;;;;;;;1049312;28;3867;-53
2022/08/26 00:43:19;;;;;;;;;;;;;;;;;;1050394;28;3248;-49
2022/08/26 00:43:49;;;;;;;;;;;;;;;;;;1048365;28;4026;-52
2022/08/26 00:44:20;;;;;;;;;;;;;;;;;;1050108;28;3204;-50
2022/08/26 00:44:50;;;;;;;;;;;;;;;;;;1051454;28;3856;-53
2022/08/26 00:45:21;;;;;;;;;;;;;;;;;;1053186;28;3647;-55
2022/08/26 00:45:57;;;;;;;;;;;;;;;;;;1052820;28;4167;-50
2022/08/26 00:46:28;;;;;;;;;;;;;;;;;;1053781;28;4079;-51
2022/08/26 00:47:00;;;;;;;;;;;;;;;;;;1052961;28;3699;-53
2022/08/26 00:47:42;;;;;;;;;;;;;;;;;;1053259;28;4205;-50
2022/08/26 00:48:14;;;;;;;;;;;;;;;;;;1054955;28;3744;-53
2022/08/26 00:48:46;;;;;;;;;;;;;;;;;;1051197;28;3923;-52
2022/08/26 00:49:21;;;;;;;;;;;;;;;;;;1054341;28;3194;-50
2022/08/26 00:49:58;;;;;;;;;;;;;;;;;;1052367;28;3782;-52
2022/08/26 00:50:29;;;;;;;;;;;;;;;;;;1053638;28;4093;-53
2022/08/26 00:51:02;;;;;;;;;;;;;;;;;;1053612;28;3507;-48
2022/08/26 00:51:35;;;;;;;;;;;;;;;;;;1051999;28;3917;-52
2022/08/26 00:52:10;;;;;;;;;;;;;;;;;;1054091;28;3130;-53
2022/08/26 00:52:41;;;;;;;;;;;;;;;;;;1050824;28;3900;-52
2022/08/26 00:53:20;;;;;;;;;;;;;;;;;;1055212;28;2989;-50
2022/08/26 00:53:52;;;;;;;;;;;;;;;;;;1048687;28;4090;-50
2022/08/26 00:54:23;;;;;;;;;;;;;;;;;;1048184;28;3711;-49
2022/08/26 00:55:05;;;;;;;;;;;;;;;;;;1047397;28;4100;-50
2022/08/26 00:55:37;;;;;;;;;;;;;;;;;;1050219;28;3892;-53
2022/08/26 00:56:28;;;;;;;;;;;;;;;;;;1052873;28;3920;-53
2022/08/26 00:57:07;;;;;;;;;;;;;;;;;;1053223;28;3873;-54
2022/08/26 00:57:38;;;;;;;;;;;;;;;;;;1050825;28;4034;-50
2022/08/26 00:58:08;;;;;;;;;;;;;;;;;;1053680;28;3290;-54
2022/08/26 00:58:41;;;;;;;;;;;;;;;;;;1052344;28;4103;-52
2022/08/26 00:59:12;;;;;;;;;;;;;;;;;;1054310;28;1367;-50
2022/08/26 00:59:45;;;;;;;;;;;;;;;;;;1047930;28;4251;-50
2022/08/26 01:00:18;;;;;;;;;;;;;;;;;;1049377;28;1168;-50
2022/08/26 01:00:48;;;;;;;;;;;;;;;;;;1049524;28;3880;-51
2022/08/26 01:01:19;;;;;;;;;;;;;;;;;;1050774;28;3248;-50
2022/08/26 01:01:49;;;;;;;;;;;;;;;;;;1052694;28;3874;-54
2022/08/26 01:02:19;;;;;;;;;;;;;;;;;;1052862;28;5506;-51
2022/08/26 01:02:50;;;;;;;;;;;;;;;;;;1052533;28;3865;-53
2022/08/26 01:03:24;;;;;;;;;;;;;;;;;;1048247;28;3839;-51
2022/08/26 01:03:55;;;;;;;;;;;;;;;;;;1048296;28;3986;-51
2022/08/26 01:04:25;;;;;;;;;;;;;;;;;;1050182;28;3954;-49
2022/08/26 01:04:57;;;;;;;;;;;;;;;;;;1050083;28;2521;-50
2022/08/26 01:05:28;;;;;;;;;;;;;;;;;;1053380;28;3871;-55
2022/08/26 01:06:00;;;;;;;;;;;;;;;;;;1055057;28;1360;-51
2022/08/26 01:06:30;;;;;;;;;;;;;;;;;;1052066;28;3906;-51
2022/08/26 01:07:01;;;;;;;;;;;;;;;;;;1049118;28;3794;-50
2022/08/26 01:07:33;;;;;;;;;;;;;;;;;;1048701;28;3908;-51
2022/08/26 01:08:04;;;;;;;;;;;;;;;;;;1050223;28;1762;-52
2022/08/26 01:08:34;;;;;;;;;;;;;;;;;;1049453;28;3901;-53
2022/08/26 01:09:05;;;;;;;;;;;;;;;;;;1054059;28;3822;-50
2022/08/26 01:09:35;;;;;;;;;;;;;;;;;;1053076;28;4055;-52
2022/08/26 01:10:10;;;;;;;;;;;;;;;;;;1054829;28;1326;-50
2022/08/26 01:10:41;;;;;;;;;;;;;;;;;;1053432;28;4026;-55
2022/08/26 01:11:11;;;;;;;;;;;;;;;;;;1053916;28;3509;-51
2022/08/26 01:11:42;;;;;;;;;;;;;;;;;;1052847;28;4083;-49
2022/08/26 01:12:12;;;;;;;;;;;;;;;;;;1052992;28;3299;-51
2022/08/26 01:12:47;;;;;;;;;;;;;;;;;;1052741;28;4165;-50
2022/08/26 01:13:18;;;;;;;;;;;;;;;;;;1051158;28;2604;-53
2022/08/26 01:13:51;;;;;;;;;;;;;;;;;;1050628;28;3894;-51
2022/08/26 01:14:21;;;;;;;;;;;;;;;;;;1052930;28;2992;-51
2022/08/26 01:14:51;;;;;;;;;;;;;;;;;;1051422;28;3861;-51
2022/08/26 01:15:26;;;;;;;;;;;;;;;;;;1053132;28;2945;-52
2022/08/26 01:15:59;;;;;;;;;;;;;;;;;;1052836;28;3727;-53
2022/08/26 01:16:31;;;;;;;;;;;;;;;;;;1054019;28;3900;-52
2022/08/26 01:17:03;;;;;;;;;;;;;;;;;;1051203;28;3436;-53
2022/08/26 01:17:33;;;;;;;;;;;;;;;;;;1053618;28;4120;-49
2022/08/26 01:18:04;;;;;;;;;;;;;;;;;;1053945;28;3013;-49
2022/08/26 01:18:35;;;;;;;;;;;;;;;;;;1053436;28;3789;-51
2022/08/26 01:19:12;;;;;;;;;;;;;;;;;;1051422;28;3062;-51
2022/08/26 01:19:44;;;;;;;;;;;;;;;;;;1052211;28;3883;-50
2022/08/26 01:20:27;;;;;;;;;;;;;;;;;;1053395;28;3353;-50
2022/08/26 01:21:16;;;;;;;;;;;;;;;;;;1052942;28;3602;-52
2022/08/26 01:21:48;;;;;;;;;;;;;;;;;;1050331;28;3866;-52
2022/08/26 01:22:21;;;;;;;;;;;;;;;;;;1053696;28;2691;-54
2022/08/26 01:23:03;;;;;;;;;;;;;;;;;;1053510;28;4011;-51
2022/08/26 01:23:36;;;;;;;;;;;;;;;;;;1053322;28;4120;-53
2022/08/26 01:24:07;;;;;;;;;;;;;;;;;;1052993;28;2732;-52
2022/08/26 01:24:38;;;;;;;;;;;;;;;;;;1051871;28;4519;-52
2022/08/26 01:25:09;;;;;;;;;;;;;;;;;;1052805;28;3967;-52
2022/08/26 01:25:41;;;;;;;;;;;;;;;;;;1054308;28;3855;-50
2022/08/26 01:26:15;;;;;;;;;;;;;;;;;;1052475;28;3043;-50
2022/08/26 01:26:45;;;;;;;;;;;;;;;;;;1051147;28;4030;-51
2022/08/26 01:27:17;;;;;;;;;;;;;;;;;;1054831;28;4594;-52
2022/08/26 01:27:47;;;;;;;;;;;;;;;;;;1052392;28;4016;-53
2022/08/26 01:28:26;;;;;;;;;;;;;;;;;;1054766;28;3899;-49
2022/08/26 01:28:59;;;;;;;;;;;;;;;;;;1053310;28;3780;-51
2022/08/26 01:29:30;;;;;;;;;;;;;;;;;;1053724;28;3986;-55
2022/08/26 01:30:01;;;;;;;;;;;;;;;;;;1053899;28;3969;-50
2022/08/26 01:30:32;;;;;;;;;;;;;;;;;;1053564;28;4061;-55
2022/08/26 01:31:04;;;;;;;;;;;;;;;;;;1054373;28;2826;-51
2022/08/26 01:31:37;;;;;;;;;;;;;;;;;;1051770;28;3831;-50
2022/08/26 01:32:09;;;;;;;;;;;;;;;;;;1053101;28;3427;-54
2022/08/26 01:32:40;;;;;;;;;;;;;;;;;;1052626;28;4433;-49
2022/08/26 01:33:26;;;;;;;;;;;;;;;;;;1051797;28;2238;-49
2022/08/26 01:33:59;;;;;;;;;;;;;;;;;;1052484;28;3875;-51
2022/08/26 01:34:31;;;;;;;;;;;;;;;;;;1048675;28;3948;-55
2022/08/26 01:35:01;;;;;;;;;;;;;;;;;;1049848;28;3944;-50
2022/08/26 01:35:32;;;;;;;;;;;;;;;;;;1048418;28;3890;-51
2022/08/26 01:36:02;;;;;;;;;;;;;;;;;;1049941;28;4136;-52
2022/08/26 01:36:32;;;;;;;;;;;;;;;;;;1052889;28;3894;-55
2022/08/26 01:37:11;;;;;;;;;;;;;;;;;;1048600;28;3763;-53
2022/08/26 01:37:41;;;;;;;;;;;;;;;;;;1047837;28;4202;-54
2022/08/26 01:38:12;;;;;;;;;;;;;;;;;;1049845;28;1658;-53
2022/08/26 01:38:43;;;;;;;;;;;;;;;;;;1049562;28;3891;-54
2022/08/26 01:39:13;;;;;;;;;;;;;;;;;;1055432;28;1372;-50
2022/08/26 01:39:46;;;;;;;;;;;;;;;;;;1052068;28;3896;-54
2022/08/26 01:40:19;;;;;;;;;;;;;;;;;;1053289;28;3072;-53
2022/08/26 01:40:49;;;;;;;;;;;;;;;;;;1052744;28;3877;-49
2022/08/26 01:41:21;;;;;;;;;;;;;;;;;;1047966;28;2417;-50
2022/08/26 01:41:54;;;;;;;;;;;;;;;;;;1046679;28;3873;-53
2022/08/26 01:42:25;;;;;;;;;;;;;;;;;;1048240;28;2680;-52
2022/08/26 01:42:56;;;;;;;;;;;;;;;;;;1047824;28;3933;-50
2022/08/26 01:43:28;;;;;;;;;;;;;;;;;;1054060;28;4159;-52
2022/08/26 01:43:59;;;;;;;;;;;;;;;;;;1052797;28;3677;-50
2022/08/26 01:44:35;;;;;;;;;;;;;;;;;;1053314;28;3919;-50
2022/08/26 01:45:13;;;;;;;;;;;;;;;;;;1054399;28;3927;-49
2022/08/26 01:45:45;;;;;;;;;;;;;;;;;;1053414;28;4056;-52
2022/08/26 01:46:16;;;;;;;;;;;;;;;;;;1053374;28;3279;-48
2022/08/26 01:46:47;;;;;;;;;;;;;;;;;;1051745;28;4220;-52
2022/08/26 01:47:19;;;;;;;;;;;;;;;;;;1053612;28;3117;-47
2022/08/26 01:47:52;;;;;;;;;;;;;;;;;;1054022;28;4001;-52
2022/08/26 01:48:27;;;;;;;;;;;;;;;;;;1055049;28;1608;-52
2022/08/26 01:48:58;;;;;;;;;;;;;;;;;;1052689;28;3650;-51
2022/08/26 01:49:29;;;;;;;;;;;;;;;;;;1053479;28;3888;-54
2022/08/26 01:50:01;;;;;;;;;;;;;;;;;;1053447;28;2069;-49
2022/08/26 01:50:33;;;;;;;;;;;;;;;;;;1053231;28;3989;-54
2022/08/26 01:51:04;;;;;;;;;;;;;;;;;;1052940;28;3615;-53
2022/08/26 01:51:36;;;;;;;;;;;;;;;;;;1048127;28;4155;-48
2022/08/26 01:52:07;;;;;;;;;;;;;;;;;;1044968;28;3848;-50
2022/08/26 01:52:39;;;;;;;;;;;;;;;;;;1045159;28;3905;-50
2022/08/26 01:53:11;;;;;;;;;;;;;;;;;;1045110;28;3561;-53
2022/08/26 01:53:42;;;;;;;;;;;;;;;;;;1045304;28;4133;-54
2022/08/26 01:54:12;;;;;;;;;;;;;;;;;;1043129;28;3264;-50
2022/08/26 01:54:42;;;;;;;;;;;;;;;;;;1044563;28;4063;-54
2022/08/26 01:55:14;;;;;;;;;;;;;;;;;;1045132;28;2852;-49
2022/08/26 01:55:46;;;;;;;;;;;;;;;;;;1044530;28;3951;-52
2022/08/26 01:56:17;;;;;;;;;;;;;;;;;;1049998;28;3531;-49
2022/08/26 01:56:55;;;;;;;;;;;;;;;;;;1047446;28;3921;-50
2022/08/26 01:57:26;;;;;;;;;;;;;;;;;;1050673;28;4505;-50
2022/08/26 01:57:56;;;;;;;;;;;;;;;;;;1052832;28;3534;-52
2022/08/26 01:58:29;;;;;;;;;;;;;;;;;;1052798;28;4291;-50
2022/08/26 01:59:01;;;;;;;;;;;;;;;;;;1047795;28;3545;-54
2022/08/26 01:59:31;;;;;;;;;;;;;;;;;;1048699;28;4054;-52
2022/08/26 02:00:04;;;;;;;;;;;;;;;;;;1047346;28;3896;-51
2022/08/26 02:00:34;;;;;;;;;;;;;;;;;;1049002;28;4107;-53
2022/08/26 02:01:05;;;;;;;;;;;;;;;;;;1051786;28;3898;-50
2022/08/26 02:01:36;;;;;;;;;;;;;;;;;;1052040;28;3992;-50
2022/08/26 02:02:07;;;;;;;;;;;;;;;;;;1052930;28;4065;-49
2022/08/26 02:02:37;;;;;;;;;;;;;;;;;;1052864;28;4024;-53
2022/08/26 02:03:16;;;;;;;;;;;;;;;;;;1055062;28;3962;-52
2022/08/26 02:03:56;;;;;;;;;;;;;;;;;;1052785;28;3868;-51
2022/08/26 02:04:27;;;;;;;;;;;;;;;;;;1053628;28;3984;-50
2022/08/26 02:04:59;;;;;;;;;;;;;;;;;;1054189;28;1861;-54
2022/08/26 02:05:29;;;;;;;;;;;;;;;;;;1052106;28;3907;-50
2022/08/26 02:06:02;;;;;;;;;;;;;;;;;;1049973;28;3111;-54
2022/08/26 02:06:34;;;;;;;;;;;;;;;;;;1049282;28;3923;-55
2022/08/26 02:07:06;;;;;;;;;;;;;;;;;;1049682;28;2276;-53
2022/08/26 02:07:37;;;;;;;;;;;;;;;;;;1049926;28;4535;-53
2022/08/26 02:08:08;;;;;;;;;;;;;;;;;;1049458;28;3914;-53
2022/08/26 02:08:42;;;;;;;;;;;;;;;;;;1040337;28;3975;-49
2022/08/26 02:09:13;;;;;;;;;;;;;;;;;;1042567;28;1939;-49
2022/08/26 02:09:43;;;;;;;;;;;;;;;;;;1039535;28;4087;-49
2022/08/26 02:10:14;;;;;;;;;;;;;;;;;;1046068;28;3093;-53
2022/08/26 02:10:44;;;;;;;;;;;;;;;;;;1052576;28;3982;-50
2022/08/26 02:11:14;;;;;;;;;;;;;;;;;;1054919;28;3591;-51
2022/08/26 02:11:45;;;;;;;;;;;;;;;;;;1051683;28;3983;-50
2022/08/26 02:12:17;;;;;;;;;;;;;;;;;;1052762;28;3125;-49
2022/08/26 02:12:47;;;;;;;;;;;;;;;;;;1052880;28;4048;-55
2022/08/26 02:13:17;;;;;;;;;;;;;;;;;;1053318;28;2885;-53
2022/08/26 02:13:53;;;;;;;;;;;;;;;;;;1052707;28;4039;-53
2022/08/26 02:14:31;;;;;;;;;;;;;;;;;;1054155;28;1632;-51
2022/08/26 02:15:05;;;;;;;;;;;;;;;;;;1054184;28;3957;-50
2022/08/26 02:15:36;;;;;;;;;;;;;;;;;;1051054;28;4028;-51
2022/08/26 02:16:07;;;;;;;;;;;;;;;;;;1053492;28;3309;-49
2022/08/26 02:16:39;;;;;;;;;;;;;;;;;;1052762;28;4061;-49
2022/08/26 02:17:10;;;;;;;;;;;;;;;;;;1052941;28;4010;-54
2022/08/26 02:17:45;;;;;;;;;;;;;;;;;;1053585;28;3939;-52
2022/08/26 02:18:15;;;;;;;;;;;;;;;;;;1053939;28;2496;-52
2022/08/26 02:18:47;;;;;;;;;;;;;;;;;;1052784;28;4153;-50
2022/08/26 02:19:22;;;;;;;;;;;;;;;;;;1052683;28;3531;-51
2022/08/26 02:19:52;;;;;;;;;;;;;;;;;;1052062;28;3844;-50
2022/08/26 02:20:23;;;;;;;;;;;;;;;;;;1053072;28;3302;-50
2022/08/26 02:20:54;;;;;;;;;;;;;;;;;;1052795;28;3819;-54
2022/08/26 02:21:24;;;;;;;;;;;;;;;;;;1054497;28;1656;-52
2022/08/26 02:21:56;;;;;;;;;;;;;;;;;;1051783;28;3862;-50
2022/08/26 02:22:27;;;;;;;;;;;;;;;;;;1052121;28;3952;-52
2022/08/26 02:22:58;;;;;;;;;;;;;;;;;;1053012;28;3870;-53
2022/08/26 02:23:28;;;;;;;;;;;;;;;;;;1053759;28;3889;-53
2022/08/26 02:24:06;;;;;;;;;;;;;;;;;;1053547;28;2896;-52
2022/08/26 02:24:51;;;;;;;;;;;;;;;;;;1053476;28;3891;-53
2022/08/26 02:25:25;;;;;;;;;;;;;;;;;;1053088;28;2875;-54
2022/08/26 02:26:06;;;;;;;;;;;;;;;;;;1051650;28;3766;-50
2022/08/26 02:26:36;;;;;;;;;;;;;;;;;;1053572;28;4101;-49
2022/08/26 02:27:07;;;;;;;;;;;;;;;;;;1047995;28;2831;-53
2022/08/26 02:27:38;;;;;;;;;;;;;;;;;;1045588;28;3966;-51
2022/08/26 02:28:09;;;;;;;;;;;;;;;;;;1044604;28;2743;-50
2022/08/26 02:28:44;;;;;;;;;;;;;;;;;;1044223;28;4073;-51
2022/08/26 02:29:23;;;;;;;;;;;;;;;;;;1051157;28;1876;-52
2022/08/26 02:29:56;;;;;;;;;;;;;;;;;;1051928;28;4008;-55
2022/08/26 02:30:28;;;;;;;;;;;;;;;;;;1052145;28;4044;-51
2022/08/26 02:30:58;;;;;;;;;;;;;;;;;;1053663;28;1700;-52
2022/08/26 02:31:28;;;;;;;;;;;;;;;;;;1053672;28;3935;-49
2022/08/26 02:31:59;;;;;;;;;;;;;;;;;;1052577;28;3521;-50
2022/08/26 02:32:29;;;;;;;;;;;;;;;;;;1051914;28;4078;-53
2022/08/26 02:33:07;;;;;;;;;;;;;;;;;;1053305;28;1659;-51
2022/08/26 02:33:44;;;;;;;;;;;;;;;;;;1042684;28;4155;-50
2022/08/26 02:34:17;;;;;;;;;;;;;;;;;;1044510;28;3823;-51
2022/08/26 02:34:47;;;;;;;;;;;;;;;;;;1044511;28;4077;-50
2022/08/26 02:35:19;;;;;;;;;;;;;;;;;;1045377;28;1611;-49
2022/08/26 02:35:49;;;;;;;;;;;;;;;;;;1044508;28;4002;-50
2022/08/26 02:36:20;;;;;;;;;;;;;;;;;;1045725;28;3627;-52
2022/08/26 02:36:51;;;;;;;;;;;;;;;;;;1044053;28;3814;-50
2022/08/26 02:37:21;;;;;;;;;;;;;;;;;;1044265;28;2114;-54
2022/08/26 02:37:51;;;;;;;;;;;;;;;;;;1042369;28;3998;-53
2022/08/26 02:38:22;;;;;;;;;;;;;;;;;;1047876;28;2616;-51
2022/08/26 02:38:52;;;;;;;;;;;;;;;;;;1047411;28;4100;-49
2022/08/26 02:39:22;;;;;;;;;;;;;;;;;;1047505;28;3274;-54
2022/08/26 02:39:53;;;;;;;;;;;;;;;;;;1048093;28;3844;-51
2022/08/26 02:40:25;;;;;;;;;;;;;;;;;;1045317;28;1587;-51
2022/08/26 02:40:55;;;;;;;;;;;;;;;;;;1044583;28;4164;-53
2022/08/26 02:41:25;;;;;;;;;;;;;;;;;;1047344;28;5590;-48
2022/08/26 02:41:56;;;;;;;;;;;;;;;;;;1048592;28;3599;-53
2022/08/26 02:42:27;;;;;;;;;;;;;;;;;;1045231;28;3899;-51
2022/08/26 02:42:57;;;;;;;;;;;;;;;;;;1045025;28;2953;-51
2022/08/26 02:43:27;;;;;;;;;;;;;;;;;;1044046;28;3890;-51
2022/08/26 02:43:58;;;;;;;;;;;;;;;;;;1044454;28;2838;-51
2022/08/26 02:44:28;;;;;;;;;;;;;;;;;;1045521;28;3876;-54
2022/08/26 02:44:58;;;;;;;;;;;;;;;;;;1042823;28;3350;-52
2022/08/26 02:45:29;;;;;;;;;;;;;;;;;;1041977;28;4111;-51
2022/08/26 02:46:00;;;;;;;;;;;;;;;;;;1043930;28;1891;-53
2022/08/26 02:46:30;;;;;;;;;;;;;;;;;;1043204;28;3898;-54
2022/08/26 02:47:01;;;;;;;;;;;;;;;;;;1041319;28;3142;-52
2022/08/26 02:47:32;;;;;;;;;;;;;;;;;;1044516;28;3884;-53
2022/08/26 02:48:08;;;;;;;;;;;;;;;;;;1043581;28;3173;-48
2022/08/26 02:48:38;;;;;;;;;;;;;;;;;;1044159;28;4139;-53
2022/08/26 02:49:08;;;;;;;;;;;;;;;;;;1045268;28;3956;-51
2022/08/26 02:49:40;;;;;;;;;;;;;;;;;;1043381;28;3869;-49
2022/08/26 02:50:10;;;;;;;;;;;;;;;;;;1044103;28;3597;-54
2022/08/26 02:50:41;;;;;;;;;;;;;;;;;;1043665;28;4128;-51
2022/08/26 02:51:11;;;;;;;;;;;;;;;;;;1044933;28;4356;-53
2022/08/26 02:51:42;;;;;;;;;;;;;;;;;;1041938;28;3908;-53
2022/08/26 02:52:12;;;;;;;;;;;;;;;;;;1044095;28;2853;-52
2022/08/26 02:52:42;;;;;;;;;;;;;;;;;;1046363;28;4053;-49
2022/08/26 02:53:13;;;;;;;;;;;;;;;;;;1045231;28;2844;-51
2022/08/26 02:53:43;;;;;;;;;;;;;;;;;;1043913;28;4083;-55
2022/08/26 02:54:14;;;;;;;;;;;;;;;;;;1046195;28;1371;-53
2022/08/26 02:54:44;;;;;;;;;;;;;;;;;;1043606;28;3988;-49
2022/08/26 02:55:15;;;;;;;;;;;;;;;;;;1042217;28;3573;-52
2022/08/26 02:55:48;;;;;;;;;;;;;;;;;;1043423;28;3866;-54
2022/08/26 02:56:18;;;;;;;;;;;;;;;;;;1045854;28;1753;-51
2022/08/26 02:56:55;;;;;;;;;;;;;;;;;;1042673;28;3760;-52
2022/08/26 02:57:25;;;;;;;;;;;;;;;;;;1045723;28;2540;-53
2022/08/26 02:57:55;;;;;;;;;;;;;;;;;;1043570;28;5768;-50
2022/08/26 02:58:26;;;;;;;;;;;;;;;;;;1046270;28;3938;-50
2022/08/26 02:58:56;;;;;;;;;;;;;;;;;;1044095;28;3013;-52
2022/08/26 02:59:28;;;;;;;;;;;;;;;;;;1045449;28;4475;-52
2022/08/26 02:59:59;;;;;;;;;;;;;;;;;;1041696;28;3344;-52
2022/08/26 03:00:30;;;;;;;;;;;;;;;;;;1043373;28;3897;-51
2022/08/26 03:01:00;;;;;;;;;;;;;;;;;;1042669;28;2904;-53
2022/08/26 03:01:32;;;;;;;;;;;;;;;;;;1042085;28;4097;-49
2022/08/26 03:02:03;;;;;;;;;;;;;;;;;;1044528;28;3948;-52
2022/08/26 03:02:33;;;;;;;;;;;;;;;;;;1045615;28;4047;-53
2022/08/26 03:03:03;;;;;;;;;;;;;;;;;;1042227;28;3757;-50
2022/08/26 03:03:34;;;;;;;;;;;;;;;;;;1043565;28;4030;-50
2022/08/26 03:04:06;;;;;;;;;;;;;;;;;;1043243;28;2666;-52
2022/08/26 03:04:37;;;;;;;;;;;;;;;;;;1043026;28;3794;-52
2022/08/26 03:05:08;;;;;;;;;;;;;;;;;;1044822;28;3216;-52
2022/08/26 03:05:39;;;;;;;;;;;;;;;;;;1044176;28;4043;-51
2022/08/26 03:06:09;;;;;;;;;;;;;;;;;;1045898;28;1583;-54
2022/08/26 03:06:40;;;;;;;;;;;;;;;;;;1044135;28;3868;-52
2022/08/26 03:07:10;;;;;;;;;;;;;;;;;;1043866;28;4000;-52
2022/08/26 03:07:40;;;;;;;;;;;;;;;;;;1043820;28;3963;-52
2022/08/26 03:08:10;;;;;;;;;;;;;;;;;;1043094;28;3114;-50
2022/08/26 03:08:41;;;;;;;;;;;;;;;;;;1044109;28;3901;-53
2022/08/26 03:09:11;;;;;;;;;;;;;;;;;;1044892;28;4103;-51
2022/08/26 03:09:42;;;;;;;;;;;;;;;;;;1042030;28;3889;-53
2022/08/26 03:10:12;;;;;;;;;;;;;;;;;;1043943;28;3355;-53
2022/08/26 03:10:42;;;;;;;;;;;;;;;;;;1044922;28;3933;-49
2022/08/26 03:11:12;;;;;;;;;;;;;;;;;;1045057;28;1684;-51
2022/08/26 03:11:44;;;;;;;;;;;;;;;;;;1041810;28;4023;-54
2022/08/26 03:12:14;;;;;;;;;;;;;;;;;;1043870;28;2595;-53
2022/08/26 03:12:44;;;;;;;;;;;;;;;;;;1042631;28;4092;-54
2022/08/26 03:13:15;;;;;;;;;;;;;;;;;;1044285;28;3316;-49
2022/08/26 03:13:45;;;;;;;;;;;;;;;;;;1042148;28;4011;-51
2022/08/26 03:14:16;;;;;;;;;;;;;;;;;;1042931;28;3788;-50
2022/08/26 03:14:46;;;;;;;;;;;;;;;;;;1045242;28;3968;-50
2022/08/26 03:15:17;;;;;;;;;;;;;;;;;;1046639;28;3649;-52
2022/08/26 03:15:48;;;;;;;;;;;;;;;;;;1046035;28;3972;-50
2022/08/26 03:16:19;;;;;;;;;;;;;;;;;;1044860;28;1320;-52
2022/08/26 03:16:51;;;;;;;;;;;;;;;;;;1042665;28;3977;-49
2022/08/26 03:17:21;;;;;;;;;;;;;;;;;;1042998;28;2977;-50
2022/08/26 03:17:51;;;;;;;;;;;;;;;;;;1044199;28;4075;-52
2022/08/26 03:18:22;;;;;;;;;;;;;;;;;;1044320;28;2529;-52
2022/08/26 03:18:52;;;;;;;;;;;;;;;;;;1044150;28;4045;-55
2022/08/26 03:19:23;;;;;;;;;;;;;;;;;;1046029;28;1510;-51
2022/08/26 03:19:54;;;;;;;;;;;;;;;;;;1043154;28;3970;-52
2022/08/26 03:20:24;;;;;;;;;;;;;;;;;;1044652;28;1496;-50
2022/08/26 03:20:54;;;;;;;;;;;;;;;;;;1043604;28;3955;-51
2022/08/26 03:21:25;;;;;;;;;;;;;;;;;;1044509;28;1786;-50
2022/08/26 03:21:55;;;;;;;;;;;;;;;;;;1042591;28;3848;-55
2022/08/26 03:22:25;;;;;;;;;;;;;;;;;;1044495;28;4028;-51
2022/08/26 03:22:56;;;;;;;;;;;;;;;;;;1043674;28;3660;-53
2022/08/26 03:23:26;;;;;;;;;;;;;;;;;;1044323;28;4062;-54
2022/08/26 03:23:56;;;;;;;;;;;;;;;;;;1042029;28;3816;-51
2022/08/26 03:24:27;;;;;;;;;;;;;;;;;;1042254;28;4064;-55
2022/08/26 03:24:57;;;;;;;;;;;;;;;;;;1044483;28;3577;-49
2022/08/26 03:25:27;;;;;;;;;;;;;;;;;;1045109;28;3784;-48
2022/08/26 03:25:58;;;;;;;;;;;;;;;;;;1043756;28;3044;-48
2022/08/26 03:26:28;;;;;;;;;;;;;;;;;;1045268;28;4176;-49
2022/08/26 03:27:00;;;;;;;;;;;;;;;;;;1043465;28;3724;-52
2022/08/26 03:27:30;;;;;;;;;;;;;;;;;;1043249;28;3974;-48
2022/08/26 03:28:01;;;;;;;;;;;;;;;;;;1043730;28;2283;-50
2022/08/26 03:28:31;;;;;;;;;;;;;;;;;;1044818;28;3899;-50
2022/08/26 03:30:40;;;;;;;;;;;;;;;;;;1043603;28;4031;-51
2022/08/26 03:31:10;;;;;;;;;;;;;;;;;;1045186;28;1741;-53
2022/08/26 03:31:40;;;;;;;;;;;;;;;;;;1044135;28;4107;-51
2022/08/26 03:32:11;;;;;;;;;;;;;;;;;;1044913;28;3847;-54
2022/08/26 03:32:41;;;;;;;;;;;;;;;;;;1044890;28;4270;-51
2022/08/26 03:33:19;;;;;;;;;;;;;;;;;;1046041;28;2946;-53
2022/08/26 03:33:56;;;;;;;;;;;;;;;;;;1051790;28;3965;-48
2022/08/26 03:34:33;;;;;;;;;;;;;;;;;;1051375;28;3877;-53
2022/08/26 03:35:04;;;;;;;;;;;;;;;;;;1048342;28;2903;-51
2022/08/26 03:35:34;;;;;;;;;;;;;;;;;;1047555;28;4087;-52
2022/08/26 03:36:06;;;;;;;;;;;;;;;;;;1049513;28;3771;-51
2022/08/26 03:36:37;;;;;;;;;;;;;;;;;;1045837;28;5125;-51
2022/08/26 03:37:07;;;;;;;;;;;;;;;;;;1050081;28;1386;-51
2022/08/26 03:37:38;;;;;;;;;;;;;;;;;;1047307;28;3899;-52
2022/08/26 03:38:09;;;;;;;;;;;;;;;;;;1050227;28;2689;-50
2022/08/26 03:38:40;;;;;;;;;;;;;;;;;;1051967;28;4237;-55
2022/08/26 03:39:11;;;;;;;;;;;;;;;;;;1054316;28;4152;-50
2022/08/26 03:39:41;;;;;;;;;;;;;;;;;;1051103;28;3900;-49
2022/08/26 03:40:12;;;;;;;;;;;;;;;;;;1053854;28;3373;-52
2022/08/26 03:40:42;;;;;;;;;;;;;;;;;;1052099;28;3901;-50
2022/08/26 03:41:13;;;;;;;;;;;;;;;;;;1053438;28;2511;-49
2022/08/26 03:41:44;;;;;;;;;;;;;;;;;;1046809;28;3899;-53
2022/08/26 03:42:14;;;;;;;;;;;;;;;;;;1046164;28;1729;-53